sensor_id;sensor_type;location;lat;lon;timestamp;temperature;humidity
52963;DHT22;38827;53.024;6.596;2024-01-30T00:00:32;6.90;84.20
52963;DHT22;38827;53.024;6.596;2024-01-30T00:02:58;6.90;84.20
52963;DHT22;38827;53.024;6.596;2024-01-30T00:05:24;6.90;84.30
52963;DHT22;38827;53.024;6.596;2024-01-30T00:07:50;6.90;84.30
52963;DHT22;38827;53.024;6.596;2024-01-30T00:10:15;6.90;84.50
52963;DHT22;38827;53.024;6.596;2024-01-30T00:12:41;6.80;84.50
52963;DHT22;38827;53.024;6.596;2024-01-30T00:15:07;6.80;84.40
52963;DHT22;38827;53.024;6.596;2024-01-30T00:17:35;6.80;84.60
52963;DHT22;38827;53.024;6.596;2024-01-30T00:20:02;6.80;84.60
52963;DHT22;38827;53.024;6.596;2024-01-30T00:22:31;6.80;84.80
52963;DHT22;38827;53.024;6.596;2024-01-30T00:24:57;6.80;84.80
52963;DHT22;38827;53.024;6.596;2024-01-30T00:27:22;6.80;84.80
52963;DHT22;38827;53.024;6.596;2024-01-30T00:29:48;6.90;84.70
52963;DHT22;38827;53.024;6.596;2024-01-30T00:32:14;6.90;84.80
52963;DHT22;38827;53.024;6.596;2024-01-30T00:34:41;6.90;84.70
52963;DHT22;38827;53.024;6.596;2024-01-30T00:37:07;6.80;84.70
52963;DHT22;38827;53.024;6.596;2024-01-30T00:39:33;6.80;84.60
52963;DHT22;38827;53.024;6.596;2024-01-30T00:41:58;6.80;84.80
52963;DHT22;38827;53.024;6.596;2024-01-30T00:44:24;6.80;84.70
52963;DHT22;38827;53.024;6.596;2024-01-30T00:46:49;6.80;84.70
52963;DHT22;38827;53.024;6.596;2024-01-30T00:49:15;6.80;84.70
52963;DHT22;38827;53.024;6.596;2024-01-30T00:51:41;6.80;84.80
52963;DHT22;38827;53.024;6.596;2024-01-30T00:54:12;6.70;84.80
52963;DHT22;38827;53.024;6.596;2024-01-30T00:56:37;6.70;84.90
52963;DHT22;38827;53.024;6.596;2024-01-30T00:59:03;6.70;85.00
52963;DHT22;38827;53.024;6.596;2024-01-30T01:01:29;6.70;85.00
52963;DHT22;38827;53.024;6.596;2024-01-30T01:03:54;6.60;85.20
52963;DHT22;38827;53.024;6.596;2024-01-30T01:06:20;6.60;85.10
52963;DHT22;38827;53.024;6.596;2024-01-30T01:08:46;6.60;85.30
52963;DHT22;38827;53.024;6.596;2024-01-30T01:11:11;6.60;85.30
52963;DHT22;38827;53.024;6.596;2024-01-30T01:13:37;6.50;85.50
52963;DHT22;38827;53.024;6.596;2024-01-30T01:16:03;6.50;85.60
52963;DHT22;38827;53.024;6.596;2024-01-30T01:18:29;6.50;85.50
52963;DHT22;38827;53.024;6.596;2024-01-30T01:20:54;6.50;85.70
52963;DHT22;38827;53.024;6.596;2024-01-30T01:23:20;6.50;85.80
52963;DHT22;38827;53.024;6.596;2024-01-30T01:25:46;6.50;86.00
52963;DHT22;38827;53.024;6.596;2024-01-30T01:28:11;6.50;86.00
52963;DHT22;38827;53.024;6.596;2024-01-30T01:30:38;6.50;86.00
52963;DHT22;38827;53.024;6.596;2024-01-30T01:33:04;6.50;86.10
52963;DHT22;38827;53.024;6.596;2024-01-30T01:35:35;6.40;86.00
52963;DHT22;38827;53.024;6.596;2024-01-30T01:38:00;6.40;86.10
52963;DHT22;38827;53.024;6.596;2024-01-30T01:40:27;6.50;86.30
52963;DHT22;38827;53.024;6.596;2024-01-30T01:42:54;6.50;86.30
52963;DHT22;38827;53.024;6.596;2024-01-30T01:45:20;6.40;86.50
52963;DHT22;38827;53.024;6.596;2024-01-30T01:47:48;6.40;86.40
52963;DHT22;38827;53.024;6.596;2024-01-30T01:50:16;6.50;86.30
52963;DHT22;38827;53.024;6.596;2024-01-30T01:52:48;6.50;86.30
52963;DHT22;38827;53.024;6.596;2024-01-30T01:55:15;6.50;86.50
52963;DHT22;38827;53.024;6.596;2024-01-30T01:57:41;6.40;86.50
52963;DHT22;38827;53.024;6.596;2024-01-30T02:00:08;6.40;86.50
52963;DHT22;38827;53.024;6.596;2024-01-30T02:02:36;6.40;86.50
52963;DHT22;38827;53.024;6.596;2024-01-30T02:05:02;6.40;86.70
52963;DHT22;38827;53.024;6.596;2024-01-30T02:07:28;6.40;86.70
52963;DHT22;38827;53.024;6.596;2024-01-30T02:09:54;6.40;86.80
52963;DHT22;38827;53.024;6.596;2024-01-30T02:12:20;6.40;87.00
52963;DHT22;38827;53.024;6.596;2024-01-30T02:14:47;6.40;87.00
52963;DHT22;38827;53.024;6.596;2024-01-30T02:17:13;6.40;87.00
52963;DHT22;38827;53.024;6.596;2024-01-30T02:19:39;6.40;87.10
52963;DHT22;38827;53.024;6.596;2024-01-30T02:22:05;6.40;87.00
52963;DHT22;38827;53.024;6.596;2024-01-30T02:24:31;6.50;87.00
52963;DHT22;38827;53.024;6.596;2024-01-30T02:26:57;6.50;87.10
52963;DHT22;38827;53.024;6.596;2024-01-30T02:29:23;6.50;87.20
52963;DHT22;38827;53.024;6.596;2024-01-30T02:31:48;6.50;87.00
52963;DHT22;38827;53.024;6.596;2024-01-30T02:34:14;6.50;87.00
52963;DHT22;38827;53.024;6.596;2024-01-30T02:36:44;6.50;87.20
52963;DHT22;38827;53.024;6.596;2024-01-30T02:39:10;6.50;87.20
52963;DHT22;38827;53.024;6.596;2024-01-30T02:41:36;6.40;87.20
52963;DHT22;38827;53.024;6.596;2024-01-30T02:44:03;6.50;87.20
52963;DHT22;38827;53.024;6.596;2024-01-30T02:46:29;6.40;87.40
52963;DHT22;38827;53.024;6.596;2024-01-30T02:48:55;6.50;87.50
52963;DHT22;38827;53.024;6.596;2024-01-30T02:51:20;6.50;87.50
52963;DHT22;38827;53.024;6.596;2024-01-30T02:53:46;6.50;87.60
52963;DHT22;38827;53.024;6.596;2024-01-30T02:56:13;6.50;87.70
52963;DHT22;38827;53.024;6.596;2024-01-30T02:58:41;6.50;87.50
52963;DHT22;38827;53.024;6.596;2024-01-30T03:01:07;6.50;87.60
52963;DHT22;38827;53.024;6.596;2024-01-30T03:03:33;6.50;87.60
52963;DHT22;38827;53.024;6.596;2024-01-30T03:06:02;6.50;87.60
52963;DHT22;38827;53.024;6.596;2024-01-30T03:08:28;6.50;87.60
52963;DHT22;38827;53.024;6.596;2024-01-30T03:10:53;6.50;87.90
52963;DHT22;38827;53.024;6.596;2024-01-30T03:13:19;6.60;87.70
52963;DHT22;38827;53.024;6.596;2024-01-30T03:15:45;6.60;87.70
52963;DHT22;38827;53.024;6.596;2024-01-30T03:18:11;6.60;87.80
52963;DHT22;38827;53.024;6.596;2024-01-30T03:20:36;6.60;87.70
52963;DHT22;38827;53.024;6.596;2024-01-30T03:23:02;6.60;87.80
52963;DHT22;38827;53.024;6.596;2024-01-30T03:25:28;6.70;87.70
52963;DHT22;38827;53.024;6.596;2024-01-30T03:27:54;6.70;87.50
52963;DHT22;38827;53.024;6.596;2024-01-30T03:30:19;6.70;87.50
52963;DHT22;38827;53.024;6.596;2024-01-30T03:32:45;6.70;87.50
52963;DHT22;38827;53.024;6.596;2024-01-30T03:35:11;6.70;87.60
52963;DHT22;38827;53.024;6.596;2024-01-30T03:37:37;6.70;87.50
52963;DHT22;38827;53.024;6.596;2024-01-30T03:40:03;6.80;87.40
52963;DHT22;38827;53.024;6.596;2024-01-30T03:42:29;6.80;87.50
52963;DHT22;38827;53.024;6.596;2024-01-30T03:44:56;6.80;87.40
52963;DHT22;38827;53.024;6.596;2024-01-30T03:47:22;6.80;87.30
52963;DHT22;38827;53.024;6.596;2024-01-30T03:49:47;6.80;87.50
52963;DHT22;38827;53.024;6.596;2024-01-30T03:52:16;6.80;87.70
52963;DHT22;38827;53.024;6.596;2024-01-30T03:54:42;6.80;87.30
52963;DHT22;38827;53.024;6.596;2024-01-30T03:57:08;6.90;87.40
52963;DHT22;38827;53.024;6.596;2024-01-30T03:59:33;6.90;87.30
52963;DHT22;38827;53.024;6.596;2024-01-30T04:01:59;6.90;87.20
52963;DHT22;38827;53.024;6.596;2024-01-30T04:04:25;6.90;87.20
52963;DHT22;38827;53.024;6.596;2024-01-30T04:06:51;7.00;87.50
52963;DHT22;38827;53.024;6.596;2024-01-30T04:09:17;7.00;87.30
52963;DHT22;38827;53.024;6.596;2024-01-30T04:11:42;7.00;87.00
52963;DHT22;38827;53.024;6.596;2024-01-30T04:14:08;7.10;87.00
52963;DHT22;38827;53.024;6.596;2024-01-30T04:16:34;7.10;87.20
52963;DHT22;38827;53.024;6.596;2024-01-30T04:19:00;7.10;86.90
52963;DHT22;38827;53.024;6.596;2024-01-30T04:21:25;7.20;86.90
52963;DHT22;38827;53.024;6.596;2024-01-30T04:23:51;7.20;86.70
52963;DHT22;38827;53.024;6.596;2024-01-30T04:26:17;7.30;86.60
52963;DHT22;38827;53.024;6.596;2024-01-30T04:28:44;7.30;86.50
52963;DHT22;38827;53.024;6.596;2024-01-30T04:31:10;7.30;86.40
52963;DHT22;38827;53.024;6.596;2024-01-30T04:33:36;7.30;86.30
52963;DHT22;38827;53.024;6.596;2024-01-30T04:36:02;7.30;86.20
52963;DHT22;38827;53.024;6.596;2024-01-30T04:38:29;7.40;86.00
52963;DHT22;38827;53.024;6.596;2024-01-30T04:40:54;7.40;85.90
52963;DHT22;38827;53.024;6.596;2024-01-30T04:43:20;7.40;85.90
52963;DHT22;38827;53.024;6.596;2024-01-30T04:45:47;7.40;85.80
52963;DHT22;38827;53.024;6.596;2024-01-30T04:48:12;7.40;85.80
52963;DHT22;38827;53.024;6.596;2024-01-30T04:50:39;7.40;85.60
52963;DHT22;38827;53.024;6.596;2024-01-30T04:53:04;7.50;85.50
52963;DHT22;38827;53.024;6.596;2024-01-30T04:55:30;7.50;85.50
52963;DHT22;38827;53.024;6.596;2024-01-30T04:57:56;7.50;85.40
52963;DHT22;38827;53.024;6.596;2024-01-30T05:00:21;7.50;85.60
52963;DHT22;38827;53.024;6.596;2024-01-30T05:02:50;7.50;85.40
52963;DHT22;38827;53.024;6.596;2024-01-30T05:05:15;7.50;85.40
52963;DHT22;38827;53.024;6.596;2024-01-30T05:07:42;7.50;85.20
52963;DHT22;38827;53.024;6.596;2024-01-30T05:10:08;7.50;85.10
52963;DHT22;38827;53.024;6.596;2024-01-30T05:12:34;7.50;85.00
52963;DHT22;38827;53.024;6.596;2024-01-30T05:14:59;7.50;85.00
52963;DHT22;38827;53.024;6.596;2024-01-30T05:17:25;7.50;84.90
52963;DHT22;38827;53.024;6.596;2024-01-30T05:19:50;7.50;84.90
52963;DHT22;38827;53.024;6.596;2024-01-30T05:22:16;7.50;84.90
52963;DHT22;38827;53.024;6.596;2024-01-30T05:24:44;7.50;84.80
52963;DHT22;38827;53.024;6.596;2024-01-30T05:27:10;7.50;84.80
52963;DHT22;38827;53.024;6.596;2024-01-30T05:29:36;7.50;84.70
52963;DHT22;38827;53.024;6.596;2024-01-30T05:32:03;7.50;84.80
52963;DHT22;38827;53.024;6.596;2024-01-30T05:34:30;7.50;84.60
52963;DHT22;38827;53.024;6.596;2024-01-30T05:36:56;7.60;84.50
52963;DHT22;38827;53.024;6.596;2024-01-30T05:39:22;7.60;84.50
52963;DHT22;38827;53.024;6.596;2024-01-30T05:41:47;7.50;84.50
52963;DHT22;38827;53.024;6.596;2024-01-30T05:44:13;7.60;84.50
52963;DHT22;38827;53.024;6.596;2024-01-30T05:46:38;7.60;84.60
52963;DHT22;38827;53.024;6.596;2024-01-30T05:49:04;7.60;84.50
52963;DHT22;38827;53.024;6.596;2024-01-30T05:51:30;7.60;84.50
52963;DHT22;38827;53.024;6.596;2024-01-30T05:53:55;7.60;84.40
52963;DHT22;38827;53.024;6.596;2024-01-30T05:56:21;7.60;84.50
52963;DHT22;38827;53.024;6.596;2024-01-30T05:58:46;7.60;84.30
52963;DHT22;38827;53.024;6.596;2024-01-30T06:01:12;7.60;84.30
52963;DHT22;38827;53.024;6.596;2024-01-30T06:03:38;7.60;84.40
52963;DHT22;38827;53.024;6.596;2024-01-30T06:06:04;7.70;84.30
52963;DHT22;38827;53.024;6.596;2024-01-30T06:08:30;7.70;84.20
52963;DHT22;38827;53.024;6.596;2024-01-30T06:10:56;7.70;84.20
52963;DHT22;38827;53.024;6.596;2024-01-30T06:13:21;7.70;84.10
52963;DHT22;38827;53.024;6.596;2024-01-30T06:15:47;7.70;84.10
52963;DHT22;38827;53.024;6.596;2024-01-30T06:18:13;7.70;84.00
52963;DHT22;38827;53.024;6.596;2024-01-30T06:20:38;7.70;83.90
52963;DHT22;38827;53.024;6.596;2024-01-30T06:23:04;7.70;83.90
52963;DHT22;38827;53.024;6.596;2024-01-30T06:25:30;7.80;83.80
52963;DHT22;38827;53.024;6.596;2024-01-30T06:27:55;7.80;83.90
52963;DHT22;38827;53.024;6.596;2024-01-30T06:30:21;7.80;83.80
52963;DHT22;38827;53.024;6.596;2024-01-30T06:32:46;7.80;83.80
52963;DHT22;38827;53.024;6.596;2024-01-30T06:35:12;7.80;83.90
52963;DHT22;38827;53.024;6.596;2024-01-30T06:37:38;7.80;83.80
52963;DHT22;38827;53.024;6.596;2024-01-30T06:40:04;7.80;83.70
52963;DHT22;38827;53.024;6.596;2024-01-30T06:42:36;7.80;83.70
52963;DHT22;38827;53.024;6.596;2024-01-30T06:45:02;7.90;83.70
52963;DHT22;38827;53.024;6.596;2024-01-30T06:47:29;7.90;83.70
52963;DHT22;38827;53.024;6.596;2024-01-30T06:49:56;7.90;83.60
52963;DHT22;38827;53.024;6.596;2024-01-30T06:52:34;7.90;83.50
52963;DHT22;38827;53.024;6.596;2024-01-30T06:55:06;7.90;83.40
52963;DHT22;38827;53.024;6.596;2024-01-30T06:57:32;7.90;83.70
52963;DHT22;38827;53.024;6.596;2024-01-30T06:59:57;7.90;83.70
52963;DHT22;38827;53.024;6.596;2024-01-30T07:02:32;7.90;83.70
52963;DHT22;38827;53.024;6.596;2024-01-30T07:05:01;8.00;83.50
52963;DHT22;38827;53.024;6.596;2024-01-30T07:07:28;8.00;83.50
52963;DHT22;38827;53.024;6.596;2024-01-30T07:09:57;8.00;83.50
52963;DHT22;38827;53.024;6.596;2024-01-30T07:12:34;8.00;83.50
52963;DHT22;38827;53.024;6.596;2024-01-30T07:15:00;8.00;83.30
52963;DHT22;38827;53.024;6.596;2024-01-30T07:17:26;8.10;83.50
52963;DHT22;38827;53.024;6.596;2024-01-30T07:19:52;8.10;83.30
52963;DHT22;38827;53.024;6.596;2024-01-30T07:22:17;8.10;83.40
52963;DHT22;38827;53.024;6.596;2024-01-30T07:24:43;8.10;83.30
52963;DHT22;38827;53.024;6.596;2024-01-30T07:27:14;8.10;83.20
52963;DHT22;38827;53.024;6.596;2024-01-30T07:29:43;8.20;83.30
52963;DHT22;38827;53.024;6.596;2024-01-30T07:32:11;8.20;83.30
52963;DHT22;38827;53.024;6.596;2024-01-30T07:34:40;8.20;83.30
52963;DHT22;38827;53.024;6.596;2024-01-30T07:37:08;8.20;83.40
52963;DHT22;38827;53.024;6.596;2024-01-30T07:39:47;8.20;83.30
52963;DHT22;38827;53.024;6.596;2024-01-30T07:42:13;8.20;83.30
52963;DHT22;38827;53.024;6.596;2024-01-30T07:44:38;8.20;83.30
52963;DHT22;38827;53.024;6.596;2024-01-30T07:47:05;8.20;83.40
52963;DHT22;38827;53.024;6.596;2024-01-30T07:49:30;8.20;83.40
52963;DHT22;38827;53.024;6.596;2024-01-30T07:51:57;8.20;83.50
52963;DHT22;38827;53.024;6.596;2024-01-30T07:54:23;8.20;83.40
52963;DHT22;38827;53.024;6.596;2024-01-30T07:56:49;8.20;83.50
52963;DHT22;38827;53.024;6.596;2024-01-30T07:59:15;8.20;83.50
52963;DHT22;38827;53.024;6.596;2024-01-30T08:01:40;8.20;83.50
52963;DHT22;38827;53.024;6.596;2024-01-30T08:04:06;8.20;83.50
52963;DHT22;38827;53.024;6.596;2024-01-30T08:06:32;8.20;83.60
52963;DHT22;38827;53.024;6.596;2024-01-30T08:08:58;8.20;83.50
52963;DHT22;38827;53.024;6.596;2024-01-30T08:11:24;8.20;83.50
52963;DHT22;38827;53.024;6.596;2024-01-30T08:13:55;8.20;83.60
52963;DHT22;38827;53.024;6.596;2024-01-30T08:16:21;8.30;83.50
52963;DHT22;38827;53.024;6.596;2024-01-30T08:18:46;8.30;83.50
52963;DHT22;38827;53.024;6.596;2024-01-30T08:21:12;8.40;83.50
52963;DHT22;38827;53.024;6.596;2024-01-30T08:23:39;8.40;83.50
52963;DHT22;38827;53.024;6.596;2024-01-30T08:26:05;8.40;83.40
52963;DHT22;38827;53.024;6.596;2024-01-30T08:28:31;8.50;83.30
52963;DHT22;38827;53.024;6.596;2024-01-30T08:30:57;8.50;83.30
52963;DHT22;38827;53.024;6.596;2024-01-30T08:33:22;8.50;83.20
52963;DHT22;38827;53.024;6.596;2024-01-30T08:35:48;8.60;83.20
52963;DHT22;38827;53.024;6.596;2024-01-30T08:38:17;8.70;83.00
52963;DHT22;38827;53.024;6.596;2024-01-30T08:40:43;8.70;82.90
52963;DHT22;38827;53.024;6.596;2024-01-30T08:43:09;8.80;82.80
52963;DHT22;38827;53.024;6.596;2024-01-30T08:45:36;8.80;82.60
52963;DHT22;38827;53.024;6.596;2024-01-30T08:48:04;8.80;82.50
52963;DHT22;38827;53.024;6.596;2024-01-30T08:50:30;8.90;82.50
52963;DHT22;38827;53.024;6.596;2024-01-30T08:52:56;9.00;82.30
52963;DHT22;38827;53.024;6.596;2024-01-30T08:55:22;9.00;82.20
52963;DHT22;38827;53.024;6.596;2024-01-30T08:57:48;9.10;82.10
52963;DHT22;38827;53.024;6.596;2024-01-30T09:00:14;9.10;82.00
52963;DHT22;38827;53.024;6.596;2024-01-30T09:02:40;9.10;81.80
52963;DHT22;38827;53.024;6.596;2024-01-30T09:05:05;9.20;81.70
52963;DHT22;38827;53.024;6.596;2024-01-30T09:07:31;9.30;81.50
52963;DHT22;38827;53.024;6.596;2024-01-30T09:09:57;9.30;81.50
52963;DHT22;38827;53.024;6.596;2024-01-30T09:12:23;9.40;81.40
52963;DHT22;38827;53.024;6.596;2024-01-30T09:14:48;9.40;81.20
52963;DHT22;38827;53.024;6.596;2024-01-30T09:17:14;9.40;81.20
52963;DHT22;38827;53.024;6.596;2024-01-30T09:19:40;9.50;81.20
52963;DHT22;38827;53.024;6.596;2024-01-30T09:22:18;9.50;81.00
52963;DHT22;38827;53.024;6.596;2024-01-30T09:24:44;9.60;80.80
52963;DHT22;38827;53.024;6.596;2024-01-30T09:27:13;9.50;81.00
52963;DHT22;38827;53.024;6.596;2024-01-30T09:29:39;9.60;80.80
52963;DHT22;38827;53.024;6.596;2024-01-30T09:32:11;9.60;81.00
52963;DHT22;38827;53.024;6.596;2024-01-30T09:34:36;9.60;80.80
52963;DHT22;38827;53.024;6.596;2024-01-30T09:37:02;9.60;80.80
52963;DHT22;38827;53.024;6.596;2024-01-30T09:39:29;9.60;81.00
52963;DHT22;38827;53.024;6.596;2024-01-30T09:44:47;9.70;80.80
52963;DHT22;38827;53.024;6.596;2024-01-30T09:47:16;9.80;80.70
52963;DHT22;38827;53.024;6.596;2024-01-30T09:49:44;9.80;80.70
52963;DHT22;38827;53.024;6.596;2024-01-30T09:52:11;9.90;80.40
52963;DHT22;38827;53.024;6.596;2024-01-30T09:54:38;10.00;80.70
52963;DHT22;38827;53.024;6.596;2024-01-30T09:57:06;10.10;80.20
52963;DHT22;38827;53.024;6.596;2024-01-30T09:59:36;10.20;80.10
52963;DHT22;38827;53.024;6.596;2024-01-30T10:02:04;10.30;79.90
52963;DHT22;38827;53.024;6.596;2024-01-30T10:04:39;10.30;79.60
52963;DHT22;38827;53.024;6.596;2024-01-30T10:07:05;10.40;79.50
52963;DHT22;38827;53.024;6.596;2024-01-30T10:09:49;10.40;79.50
52963;DHT22;38827;53.024;6.596;2024-01-30T10:12:15;10.40;79.30
52963;DHT22;38827;53.024;6.596;2024-01-30T10:14:47;10.40;79.70
52963;DHT22;38827;53.024;6.596;2024-01-30T10:17:12;10.50;79.70
52963;DHT22;38827;53.024;6.596;2024-01-30T10:19:39;10.50;79.90
52963;DHT22;38827;53.024;6.596;2024-01-30T10:22:05;10.50;79.70
52963;DHT22;38827;53.024;6.596;2024-01-30T10:24:33;10.60;79.60
52963;DHT22;38827;53.024;6.596;2024-01-30T10:26:59;10.60;79.60
52963;DHT22;38827;53.024;6.596;2024-01-30T10:29:28;10.60;79.70
52963;DHT22;38827;53.024;6.596;2024-01-30T10:32:06;10.70;79.70
52963;DHT22;38827;53.024;6.596;2024-01-30T10:34:35;10.80;79.40
52963;DHT22;38827;53.024;6.596;2024-01-30T10:37:09;10.80;79.50
52963;DHT22;38827;53.024;6.596;2024-01-30T10:39:41;10.80;79.50
52963;DHT22;38827;53.024;6.596;2024-01-30T10:42:11;10.90;79.50
52963;DHT22;38827;53.024;6.596;2024-01-30T10:45:02;10.90;79.40
52963;DHT22;38827;53.024;6.596;2024-01-30T10:47:37;10.90;79.40
52963;DHT22;38827;53.024;6.596;2024-01-30T10:50:05;10.90;79.50
52963;DHT22;38827;53.024;6.596;2024-01-30T10:52:32;10.90;79.40
52963;DHT22;38827;53.024;6.596;2024-01-30T10:55:05;10.90;79.40
52963;DHT22;38827;53.024;6.596;2024-01-30T10:57:44;10.90;79.50
52963;DHT22;38827;53.024;6.596;2024-01-30T11:00:12;10.90;79.40
52963;DHT22;38827;53.024;6.596;2024-01-30T11:02:42;10.90;79.50
52963;DHT22;38827;53.024;6.596;2024-01-30T11:05:09;10.90;79.50
52963;DHT22;38827;53.024;6.596;2024-01-30T11:07:35;10.90;79.50
52963;DHT22;38827;53.024;6.596;2024-01-30T11:10:04;10.80;79.60
52963;DHT22;38827;53.024;6.596;2024-01-30T11:12:31;10.90;79.60
52963;DHT22;38827;53.024;6.596;2024-01-30T11:17:50;10.90;79.50
52963;DHT22;38827;53.024;6.596;2024-01-30T11:20:26;10.90;79.40
52963;DHT22;38827;53.024;6.596;2024-01-30T11:22:53;10.90;79.50
52963;DHT22;38827;53.024;6.596;2024-01-30T11:25:20;10.90;79.60
52963;DHT22;38827;53.024;6.596;2024-01-30T11:27:47;10.90;79.50
52963;DHT22;38827;53.024;6.596;2024-01-30T11:30:36;10.90;79.70
52963;DHT22;38827;53.024;6.596;2024-01-30T11:33:09;10.90;79.40
52963;DHT22;38827;53.024;6.596;2024-01-30T11:35:44;10.90;79.50
52963;DHT22;38827;53.024;6.596;2024-01-30T11:38:11;10.90;79.60
52963;DHT22;38827;53.024;6.596;2024-01-30T11:40:38;10.90;79.70
52963;DHT22;38827;53.024;6.596;2024-01-30T11:43:06;10.90;79.60
52963;DHT22;38827;53.024;6.596;2024-01-30T11:45:33;10.90;79.70
52963;DHT22;38827;53.024;6.596;2024-01-30T11:47:59;10.90;79.70
52963;DHT22;38827;53.024;6.596;2024-01-30T11:50:26;10.90;79.70
52963;DHT22;38827;53.024;6.596;2024-01-30T11:52:54;10.90;79.90
52963;DHT22;38827;53.024;6.596;2024-01-30T11:55:20;10.90;79.70
52963;DHT22;38827;53.024;6.596;2024-01-30T11:57:45;10.90;79.60
52963;DHT22;38827;53.024;6.596;2024-01-30T12:00:15;10.90;79.60
52963;DHT22;38827;53.024;6.596;2024-01-30T12:02:42;10.90;79.50
52963;DHT22;38827;53.024;6.596;2024-01-30T12:05:08;10.90;79.60
52963;DHT22;38827;53.024;6.596;2024-01-30T12:07:35;10.80;79.60
52963;DHT22;38827;53.024;6.596;2024-01-30T12:10:01;10.70;79.80
52963;DHT22;38827;53.024;6.596;2024-01-30T12:12:28;10.60;79.90
52963;DHT22;38827;53.024;6.596;2024-01-30T12:14:54;10.60;79.90
52963;DHT22;38827;53.024;6.596;2024-01-30T12:17:33;10.40;79.90
52963;DHT22;38827;53.024;6.596;2024-01-30T12:20:13;10.40;79.90
52963;DHT22;38827;53.024;6.596;2024-01-30T12:22:44;10.30;79.80
52963;DHT22;38827;53.024;6.596;2024-01-30T12:25:17;10.30;79.90
52963;DHT22;38827;53.024;6.596;2024-01-30T12:27:45;10.20;80.00
52963;DHT22;38827;53.024;6.596;2024-01-30T12:30:20;10.20;79.90
52963;DHT22;38827;53.024;6.596;2024-01-30T12:32:52;10.30;79.70
52963;DHT22;38827;53.024;6.596;2024-01-30T12:35:19;10.40;79.20
52963;DHT22;38827;53.024;6.596;2024-01-30T12:37:46;10.50;78.50
52963;DHT22;38827;53.024;6.596;2024-01-30T12:40:14;10.60;78.00
52963;DHT22;38827;53.024;6.596;2024-01-30T12:42:46;10.60;77.70
52963;DHT22;38827;53.024;6.596;2024-01-30T12:45:14;10.50;77.50
52963;DHT22;38827;53.024;6.596;2024-01-30T12:47:41;10.50;77.30
52963;DHT22;38827;53.024;6.596;2024-01-30T12:50:07;10.50;77.20
52963;DHT22;38827;53.024;6.596;2024-01-30T12:52:35;10.50;77.30
52963;DHT22;38827;53.024;6.596;2024-01-30T12:55:01;10.50;77.10
52963;DHT22;38827;53.024;6.596;2024-01-30T12:57:52;10.50;76.60
52963;DHT22;38827;53.024;6.596;2024-01-30T13:00:18;10.40;75.20
52963;DHT22;38827;53.024;6.596;2024-01-30T13:02:44;10.30;75.70
52963;DHT22;38827;53.024;6.596;2024-01-30T13:05:10;10.30;75.60
52963;DHT22;38827;53.024;6.596;2024-01-30T13:07:36;10.30;75.70
52963;DHT22;38827;53.024;6.596;2024-01-30T13:10:02;10.20;75.80
52963;DHT22;38827;53.024;6.596;2024-01-30T13:12:29;10.20;75.90
52963;DHT22;38827;53.024;6.596;2024-01-30T13:14:55;10.20;76.00
52963;DHT22;38827;53.024;6.596;2024-01-30T13:17:21;10.20;76.20
52963;DHT22;38827;53.024;6.596;2024-01-30T13:19:47;10.10;76.40
52963;DHT22;38827;53.024;6.596;2024-01-30T13:22:15;10.10;76.60
52963;DHT22;38827;53.024;6.596;2024-01-30T13:24:40;10.00;76.90
52963;DHT22;38827;53.024;6.596;2024-01-30T13:27:07;10.10;77.00
52963;DHT22;38827;53.024;6.596;2024-01-30T13:29:34;10.10;77.10
52963;DHT22;38827;53.024;6.596;2024-01-30T13:32:00;10.10;77.00
52963;DHT22;38827;53.024;6.596;2024-01-30T13:34:26;10.10;77.00
52963;DHT22;38827;53.024;6.596;2024-01-30T13:36:52;10.20;76.90
52963;DHT22;38827;53.024;6.596;2024-01-30T13:39:39;10.30;76.80
52963;DHT22;38827;53.024;6.596;2024-01-30T13:42:16;10.40;76.10
52963;DHT22;38827;53.024;6.596;2024-01-30T13:44:42;10.50;76.10
52963;DHT22;38827;53.024;6.596;2024-01-30T13:47:18;10.60;76.00
52963;DHT22;38827;53.024;6.596;2024-01-30T13:49:49;10.60;75.60
52963;DHT22;38827;53.024;6.596;2024-01-30T13:52:15;10.50;75.60
52963;DHT22;38827;53.024;6.596;2024-01-30T13:55:04;10.50;75.80
52963;DHT22;38827;53.024;6.596;2024-01-30T13:57:33;10.40;75.90
52963;DHT22;38827;53.024;6.596;2024-01-30T14:00:10;10.40;76.30
52963;DHT22;38827;53.024;6.596;2024-01-30T14:02:36;10.30;76.20
52963;DHT22;38827;53.024;6.596;2024-01-30T14:05:02;10.30;76.40
52963;DHT22;38827;53.024;6.596;2024-01-30T14:07:30;10.30;76.30
52963;DHT22;38827;53.024;6.596;2024-01-30T14:09:55;10.20;76.60
52963;DHT22;38827;53.024;6.596;2024-01-30T14:12:21;10.20;76.80
52963;DHT22;38827;53.024;6.596;2024-01-30T14:14:47;10.10;77.10
52963;DHT22;38827;53.024;6.596;2024-01-30T14:17:13;10.10;77.40
52963;DHT22;38827;53.024;6.596;2024-01-30T14:19:38;10.00;78.00
52963;DHT22;38827;53.024;6.596;2024-01-30T14:22:04;10.00;78.30
52963;DHT22;38827;53.024;6.596;2024-01-30T14:24:31;9.90;78.70
52963;DHT22;38827;53.024;6.596;2024-01-30T14:26:56;9.80;79.40
52963;DHT22;38827;53.024;6.596;2024-01-30T14:29:22;9.80;79.40
52963;DHT22;38827;53.024;6.596;2024-01-30T14:31:48;9.80;79.60
52963;DHT22;38827;53.024;6.596;2024-01-30T14:34:15;9.70;79.60
52963;DHT22;38827;53.024;6.596;2024-01-30T14:36:40;9.80;79.80
52963;DHT22;38827;53.024;6.596;2024-01-30T14:39:06;9.70;80.00
52963;DHT22;38827;53.024;6.596;2024-01-30T14:41:33;9.70;80.20
52963;DHT22;38827;53.024;6.596;2024-01-30T14:44:09;9.70;80.40
52963;DHT22;38827;53.024;6.596;2024-01-30T14:46:37;9.60;80.50
52963;DHT22;38827;53.024;6.596;2024-01-30T14:49:03;9.60;80.90
52963;DHT22;38827;53.024;6.596;2024-01-30T14:51:31;9.50;81.30
52963;DHT22;38827;53.024;6.596;2024-01-30T14:53:56;9.50;81.70
52963;DHT22;38827;53.024;6.596;2024-01-30T14:56:22;9.40;82.10
52963;DHT22;38827;53.024;6.596;2024-01-30T14:58:48;9.40;82.60
52963;DHT22;38827;53.024;6.596;2024-01-30T15:01:14;9.40;82.90
52963;DHT22;38827;53.024;6.596;2024-01-30T15:03:43;9.30;83.20
52963;DHT22;38827;53.024;6.596;2024-01-30T15:06:09;9.30;83.70
52963;DHT22;38827;53.024;6.596;2024-01-30T15:08:36;9.20;84.20
52963;DHT22;38827;53.024;6.596;2024-01-30T15:11:04;9.10;85.30
52963;DHT22;38827;53.024;6.596;2024-01-30T15:13:30;9.10;84.70
52963;DHT22;38827;53.024;6.596;2024-01-30T15:15:57;9.10;84.80
52963;DHT22;38827;53.024;6.596;2024-01-30T15:18:25;9.10;85.00
52963;DHT22;38827;53.024;6.596;2024-01-30T15:20:50;9.10;85.20
52963;DHT22;38827;53.024;6.596;2024-01-30T15:23:17;9.10;85.40
52963;DHT22;38827;53.024;6.596;2024-01-30T15:25:43;9.00;85.60
52963;DHT22;38827;53.024;6.596;2024-01-30T15:28:09;9.00;86.00
52963;DHT22;38827;53.024;6.596;2024-01-30T15:30:36;9.00;86.20
52963;DHT22;38827;53.024;6.596;2024-01-30T15:33:10;8.90;86.20
52963;DHT22;38827;53.024;6.596;2024-01-30T15:35:36;8.90;86.60
52963;DHT22;38827;53.024;6.596;2024-01-30T15:41:12;8.80;86.90
52963;DHT22;38827;53.024;6.596;2024-01-30T15:43:59;8.80;86.90
52963;DHT22;38827;53.024;6.596;2024-01-30T15:46:39;8.80;86.90
52963;DHT22;38827;53.024;6.596;2024-01-30T15:49:08;8.80;86.90
52963;DHT22;38827;53.024;6.596;2024-01-30T15:51:40;8.80;87.30